sensor_id;sensor_type;location;lat;lon;timestamp;temperature;humidity
4964;DHT22;2497;47.410;9.740;2024-01-30T00:02:09;-0.50;99.90
4964;DHT22;2497;47.410;9.740;2024-01-30T00:04:36;-0.60;99.90
4964;DHT22;2497;47.410;9.740;2024-01-30T00:07:04;-0.60;99.90
4964;DHT22;2497;47.410;9.740;2024-01-30T00:09:31;-0.70;99.90
4964;DHT22;2497;47.410;9.740;2024-01-30T00:11:59;-0.60;99.90
4964;DHT22;2497;47.410;9.740;2024-01-30T00:14:26;-0.70;99.90
4964;DHT22;2497;47.410;9.740;2024-01-30T00:16:54;-0.70;99.90
4964;DHT22;2497;47.410;9.740;2024-01-30T00:19:21;-0.70;99.90
4964;DHT22;2497;47.410;9.740;2024-01-30T00:21:48;-0.60;99.90
4964;DHT22;2497;47.410;9.740;2024-01-30T00:24:28;-0.50;99.90
4964;DHT22;2497;47.410;9.740;2024-01-30T00:26:55;-0.60;99.90
4964;DHT22;2497;47.410;9.740;2024-01-30T00:29:23;-0.60;99.90
4964;DHT22;2497;47.410;9.740;2024-01-30T00:31:55;-0.60;99.90
4964;DHT22;2497;47.410;9.740;2024-01-30T00:34:22;-0.50;99.90
4964;DHT22;2497;47.410;9.740;2024-01-30T00:36:49;-0.60;99.90
4964;DHT22;2497;47.410;9.740;2024-01-30T00:39:16;-0.50;99.90
4964;DHT22;2497;47.410;9.740;2024-01-30T00:41:45;-0.50;99.90
4964;DHT22;2497;47.410;9.740;2024-01-30T00:44:12;-0.70;99.90
4964;DHT22;2497;47.410;9.740;2024-01-30T00:46:43;-0.80;99.90
4964;DHT22;2497;47.410;9.740;2024-01-30T00:49:11;-0.80;99.90
4964;DHT22;2497;47.410;9.740;2024-01-30T00:51:37;-0.70;99.90
4964;DHT22;2497;47.410;9.740;2024-01-30T00:54:05;-0.70;99.90
4964;DHT22;2497;47.410;9.740;2024-01-30T00:56:33;-0.60;99.90
4964;DHT22;2497;47.410;9.740;2024-01-30T00:59:00;-0.60;99.90
4964;DHT22;2497;47.410;9.740;2024-01-30T01:01:27;-0.60;99.90
4964;DHT22;2497;47.410;9.740;2024-01-30T01:03:56;-0.60;99.90
4964;DHT22;2497;47.410;9.740;2024-01-30T01:06:23;-0.60;99.90
4964;DHT22;2497;47.410;9.740;2024-01-30T01:08:50;-0.70;99.90
4964;DHT22;2497;47.410;9.740;2024-01-30T01:11:22;-0.70;99.90
4964;DHT22;2497;47.410;9.740;2024-01-30T01:13:49;-0.60;99.90
4964;DHT22;2497;47.410;9.740;2024-01-30T01:16:16;-0.60;99.90
4964;DHT22;2497;47.410;9.740;2024-01-30T01:18:43;-0.60;99.90
4964;DHT22;2497;47.410;9.740;2024-01-30T01:21:12;-0.60;99.90
4964;DHT22;2497;47.410;9.740;2024-01-30T01:23:39;-0.70;99.90
4964;DHT22;2497;47.410;9.740;2024-01-30T01:26:07;-0.70;99.90
4964;DHT22;2497;47.410;9.740;2024-01-30T01:28:35;-0.70;99.90
4964;DHT22;2497;47.410;9.740;2024-01-30T01:31:02;-0.60;99.90
4964;DHT22;2497;47.410;9.740;2024-01-30T01:33:31;-0.60;99.90
4964;DHT22;2497;47.410;9.740;2024-01-30T01:35:59;-0.50;99.90
4964;DHT22;2497;47.410;9.740;2024-01-30T01:38:29;-0.60;99.90
4964;DHT22;2497;47.410;9.740;2024-01-30T01:40:56;-0.50;99.90
4964;DHT22;2497;47.410;9.740;2024-01-30T01:43:23;-0.60;99.90
4964;DHT22;2497;47.410;9.740;2024-01-30T01:45:50;-0.50;99.90
4964;DHT22;2497;47.410;9.740;2024-01-30T01:48:18;-0.40;99.90
4964;DHT22;2497;47.410;9.740;2024-01-30T01:50:45;-0.40;99.90
4964;DHT22;2497;47.410;9.740;2024-01-30T01:53:12;-0.40;99.90
4964;DHT22;2497;47.410;9.740;2024-01-30T01:55:41;-0.50;99.90
4964;DHT22;2497;47.410;9.740;2024-01-30T01:58:09;-0.50;99.90
4964;DHT22;2497;47.410;9.740;2024-01-30T02:00:38;-0.60;99.90
4964;DHT22;2497;47.410;9.740;2024-01-30T02:03:09;-0.70;99.90
4964;DHT22;2497;47.410;9.740;2024-01-30T02:05:37;-0.80;99.90
4964;DHT22;2497;47.410;9.740;2024-01-30T02:08:05;-0.80;99.90
4964;DHT22;2497;47.410;9.740;2024-01-30T02:10:33;-0.80;99.90
4964;DHT22;2497;47.410;9.740;2024-01-30T02:13:02;-0.80;99.90
4964;DHT22;2497;47.410;9.740;2024-01-30T02:15:29;-0.70;99.90
4964;DHT22;2497;47.410;9.740;2024-01-30T02:17:56;-0.70;99.90
4964;DHT22;2497;47.410;9.740;2024-01-30T02:20:24;-0.60;99.90
4964;DHT22;2497;47.410;9.740;2024-01-30T02:22:58;-0.60;99.90
4964;DHT22;2497;47.410;9.740;2024-01-30T02:25:38;-0.60;99.90
4964;DHT22;2497;47.410;9.740;2024-01-30T02:28:09;-0.60;99.90
4964;DHT22;2497;47.410;9.740;2024-01-30T02:30:37;-0.60;99.90
4964;DHT22;2497;47.410;9.740;2024-01-30T02:33:04;-0.60;99.90
4964;DHT22;2497;47.410;9.740;2024-01-30T02:35:31;-0.80;99.90
4964;DHT22;2497;47.410;9.740;2024-01-30T02:38:00;-0.90;99.90
4964;DHT22;2497;47.410;9.740;2024-01-30T02:40:29;-1.00;99.90
4964;DHT22;2497;47.410;9.740;2024-01-30T02:42:59;-0.90;99.90
4964;DHT22;2497;47.410;9.740;2024-01-30T02:45:27;-0.90;99.90
4964;DHT22;2497;47.410;9.740;2024-01-30T02:47:57;-1.00;99.90
4964;DHT22;2497;47.410;9.740;2024-01-30T02:50:24;-0.90;99.90
4964;DHT22;2497;47.410;9.740;2024-01-30T02:52:51;-0.80;99.90
4964;DHT22;2497;47.410;9.740;2024-01-30T02:55:20;-0.70;99.90
4964;DHT22;2497;47.410;9.740;2024-01-30T02:57:48;-0.80;99.90
4964;DHT22;2497;47.410;9.740;2024-01-30T03:00:15;-0.80;99.90
4964;DHT22;2497;47.410;9.740;2024-01-30T03:02:46;-0.90;99.90
4964;DHT22;2497;47.410;9.740;2024-01-30T03:05:13;-1.00;99.90
4964;DHT22;2497;47.410;9.740;2024-01-30T03:07:40;-1.00;99.90
4964;DHT22;2497;47.410;9.740;2024-01-30T03:10:07;-1.00;99.90
4964;DHT22;2497;47.410;9.740;2024-01-30T03:12:37;-1.00;99.90
4964;DHT22;2497;47.410;9.740;2024-01-30T03:15:07;-1.00;99.90
4964;DHT22;2497;47.410;9.740;2024-01-30T03:17:35;-1.10;99.90
4964;DHT22;2497;47.410;9.740;2024-01-30T03:20:04;-1.10;99.90
4964;DHT22;2497;47.410;9.740;2024-01-30T03:22:32;-1.10;99.90
4964;DHT22;2497;47.410;9.740;2024-01-30T03:24:59;-1.10;99.90
4964;DHT22;2497;47.410;9.740;2024-01-30T03:27:26;-1.10;99.90
4964;DHT22;2497;47.410;9.740;2024-01-30T03:29:55;-1.00;99.90
4964;DHT22;2497;47.410;9.740;2024-01-30T03:32:25;-1.00;99.90
4964;DHT22;2497;47.410;9.740;2024-01-30T03:34:55;-1.00;99.90
4964;DHT22;2497;47.410;9.740;2024-01-30T03:37:26;-1.00;99.90
4964;DHT22;2497;47.410;9.740;2024-01-30T03:39:56;-1.00;99.90
4964;DHT22;2497;47.410;9.740;2024-01-30T03:42:23;-0.90;99.90
4964;DHT22;2497;47.410;9.740;2024-01-30T03:44:57;-1.00;99.90
4964;DHT22;2497;47.410;9.740;2024-01-30T03:47:24;-1.00;99.90
4964;DHT22;2497;47.410;9.740;2024-01-30T03:49:51;-1.10;99.90
4964;DHT22;2497;47.410;9.740;2024-01-30T03:52:18;-1.20;99.90
4964;DHT22;2497;47.410;9.740;2024-01-30T03:54:45;-1.30;99.90
4964;DHT22;2497;47.410;9.740;2024-01-30T03:57:12;-1.30;99.90
4964;DHT22;2497;47.410;9.740;2024-01-30T03:59:41;-1.20;99.90
4964;DHT22;2497;47.410;9.740;2024-01-30T04:02:11;-1.20;99.90
4964;DHT22;2497;47.410;9.740;2024-01-30T04:04:38;-1.20;99.90
4964;DHT22;2497;47.410;9.740;2024-01-30T04:07:06;-1.20;99.90
4964;DHT22;2497;47.410;9.740;2024-01-30T04:09:32;-1.20;99.90
4964;DHT22;2497;47.410;9.740;2024-01-30T04:12:00;-1.30;99.90
4964;DHT22;2497;47.410;9.740;2024-01-30T04:14:28;-1.40;99.90
4964;DHT22;2497;47.410;9.740;2024-01-30T04:16:56;-1.40;99.90
4964;DHT22;2497;47.410;9.740;2024-01-30T04:19:24;-1.50;99.90
4964;DHT22;2497;47.410;9.740;2024-01-30T04:21:52;-1.50;99.90
4964;DHT22;2497;47.410;9.740;2024-01-30T04:24:19;-1.70;99.90
4964;DHT22;2497;47.410;9.740;2024-01-30T04:26:46;-1.60;99.90
4964;DHT22;2497;47.410;9.740;2024-01-30T04:29:16;-1.60;99.90
4964;DHT22;2497;47.410;9.740;2024-01-30T04:31:44;-1.50;99.90
4964;DHT22;2497;47.410;9.740;2024-01-30T04:34:11;-1.60;99.90
4964;DHT22;2497;47.410;9.740;2024-01-30T04:36:39;-1.60;99.90
4964;DHT22;2497;47.410;9.740;2024-01-30T04:39:06;-1.60;99.90
4964;DHT22;2497;47.410;9.740;2024-01-30T04:41:34;-1.70;99.90
4964;DHT22;2497;47.410;9.740;2024-01-30T04:44:04;-1.50;99.90
4964;DHT22;2497;47.410;9.740;2024-01-30T04:46:32;-1.40;99.90
4964;DHT22;2497;47.410;9.740;2024-01-30T04:49:00;-1.40;99.90
4964;DHT22;2497;47.410;9.740;2024-01-30T04:51:27;-1.50;99.90
4964;DHT22;2497;47.410;9.740;2024-01-30T04:53:58;-1.70;99.90
4964;DHT22;2497;47.410;9.740;2024-01-30T04:56:25;-1.70;99.90
4964;DHT22;2497;47.410;9.740;2024-01-30T04:58:52;-1.80;99.90
4964;DHT22;2497;47.410;9.740;2024-01-30T05:01:19;-1.80;99.90
4964;DHT22;2497;47.410;9.740;2024-01-30T05:03:46;-1.70;99.90
4964;DHT22;2497;47.410;9.740;2024-01-30T05:06:24;-1.70;99.90
4964;DHT22;2497;47.410;9.740;2024-01-30T05:08:51;-1.80;99.90
4964;DHT22;2497;47.410;9.740;2024-01-30T05:11:22;-1.80;99.90
4964;DHT22;2497;47.410;9.740;2024-01-30T05:13:52;-1.80;99.90
4964;DHT22;2497;47.410;9.740;2024-01-30T05:16:19;-1.80;99.90
4964;DHT22;2497;47.410;9.740;2024-01-30T05:18:46;-1.80;99.90
4964;DHT22;2497;47.410;9.740;2024-01-30T05:21:13;-1.80;99.90
4964;DHT22;2497;47.410;9.740;2024-01-30T05:23:41;-1.80;99.90
4964;DHT22;2497;47.410;9.740;2024-01-30T05:26:09;-1.80;99.90
4964;DHT22;2497;47.410;9.740;2024-01-30T05:28:37;-1.80;99.90
4964;DHT22;2497;47.410;9.740;2024-01-30T05:31:07;-1.80;99.90
4964;DHT22;2497;47.410;9.740;2024-01-30T05:33:34;-1.70;99.90
4964;DHT22;2497;47.410;9.740;2024-01-30T05:36:01;-1.70;99.90
4964;DHT22;2497;47.410;9.740;2024-01-30T05:38:32;-1.70;99.90
4964;DHT22;2497;47.410;9.740;2024-01-30T05:41:08;-1.80;99.90
4964;DHT22;2497;47.410;9.740;2024-01-30T05:43:37;-1.80;99.90
4964;DHT22;2497;47.410;9.740;2024-01-30T05:46:04;-1.80;99.90
4964;DHT22;2497;47.410;9.740;2024-01-30T05:48:31;-1.80;99.90
4964;DHT22;2497;47.410;9.740;2024-01-30T05:51:01;-1.80;99.90
4964;DHT22;2497;47.410;9.740;2024-01-30T05:53:34;-1.80;99.90
4964;DHT22;2497;47.410;9.740;2024-01-30T05:56:06;-1.80;99.90
4964;DHT22;2497;47.410;9.740;2024-01-30T05:58:39;-1.70;99.90
4964;DHT22;2497;47.410;9.740;2024-01-30T06:01:07;-1.70;99.90
4964;DHT22;2497;47.410;9.740;2024-01-30T06:03:35;-1.80;99.90
4964;DHT22;2497;47.410;9.740;2024-01-30T06:06:02;-1.80;99.90
4964;DHT22;2497;47.410;9.740;2024-01-30T06:08:29;-1.80;99.90
4964;DHT22;2497;47.410;9.740;2024-01-30T06:10:56;-1.90;99.90
4964;DHT22;2497;47.410;9.740;2024-01-30T06:13:23;-1.70;99.90
4964;DHT22;2497;47.410;9.740;2024-01-30T06:15:55;-1.70;99.90
4964;DHT22;2497;47.410;9.740;2024-01-30T06:18:22;-1.70;99.90
4964;DHT22;2497;47.410;9.740;2024-01-30T06:20:49;-1.70;99.90
4964;DHT22;2497;47.410;9.740;2024-01-30T06:23:16;-1.70;99.90
4964;DHT22;2497;47.410;9.740;2024-01-30T06:25:43;-1.70;99.90
4964;DHT22;2497;47.410;9.740;2024-01-30T06:28:10;-1.70;99.90
4964;DHT22;2497;47.410;9.740;2024-01-30T06:30:37;-1.70;99.90
4964;DHT22;2497;47.410;9.740;2024-01-30T06:33:06;-1.70;99.90
4964;DHT22;2497;47.410;9.740;2024-01-30T06:35:33;-1.70;99.90
4964;DHT22;2497;47.410;9.740;2024-01-30T06:38:02;-1.70;99.90
4964;DHT22;2497;47.410;9.740;2024-01-30T06:40:29;-1.70;99.90
4964;DHT22;2497;47.410;9.740;2024-01-30T06:42:56;-1.70;99.90
4964;DHT22;2497;47.410;9.740;2024-01-30T06:45:23;-1.70;99.90
4964;DHT22;2497;47.410;9.740;2024-01-30T06:47:50;-1.60;99.90
4964;DHT22;2497;47.410;9.740;2024-01-30T06:50:19;-1.70;99.90
4964;DHT22;2497;47.410;9.740;2024-01-30T06:52:46;-1.70;99.90
4964;DHT22;2497;47.410;9.740;2024-01-30T06:55:13;-1.70;99.90
4964;DHT22;2497;47.410;9.740;2024-01-30T06:57:40;-1.70;99.90
4964;DHT22;2497;47.410;9.740;2024-01-30T07:00:08;-1.70;99.90
4964;DHT22;2497;47.410;9.740;2024-01-30T07:02:35;-1.80;99.90
4964;DHT22;2497;47.410;9.740;2024-01-30T07:05:02;-1.80;99.90
4964;DHT22;2497;47.410;9.740;2024-01-30T07:07:31;-1.80;99.90
4964;DHT22;2497;47.410;9.740;2024-01-30T07:09:58;-1.90;99.90
4964;DHT22;2497;47.410;9.740;2024-01-30T07:12:26;-1.70;99.90
4964;DHT22;2497;47.410;9.740;2024-01-30T07:14:56;-1.80;99.90
4964;DHT22;2497;47.410;9.740;2024-01-30T07:17:25;-1.70;99.90
4964;DHT22;2497;47.410;9.740;2024-01-30T07:19:53;-1.70;99.90
4964;DHT22;2497;47.410;9.740;2024-01-30T07:22:21;-1.70;99.90
4964;DHT22;2497;47.410;9.740;2024-01-30T07:24:50;-1.60;99.90
4964;DHT22;2497;47.410;9.740;2024-01-30T07:27:17;-1.50;99.90
4964;DHT22;2497;47.410;9.740;2024-01-30T07:29:44;-1.40;99.90
4964;DHT22;2497;47.410;9.740;2024-01-30T07:32:11;-1.40;99.90
4964;DHT22;2497;47.410;9.740;2024-01-30T07:34:39;-1.40;99.90
4964;DHT22;2497;47.410;9.740;2024-01-30T07:37:06;-1.30;99.90
4964;DHT22;2497;47.410;9.740;2024-01-30T07:39:34;-1.20;99.90
4964;DHT22;2497;47.410;9.740;2024-01-30T07:42:03;-1.30;99.90
4964;DHT22;2497;47.410;9.740;2024-01-30T07:44:31;-1.30;99.90
4964;DHT22;2497;47.410;9.740;2024-01-30T07:46:58;-1.40;99.90
4964;DHT22;2497;47.410;9.740;2024-01-30T07:49:25;-1.30;99.90
4964;DHT22;2497;47.410;9.740;2024-01-30T07:51:52;-1.40;99.90
4964;DHT22;2497;47.410;9.740;2024-01-30T07:54:19;-1.40;99.90
4964;DHT22;2497;47.410;9.740;2024-01-30T07:56:46;-1.20;99.90
4964;DHT22;2497;47.410;9.740;2024-01-30T07:59:14;-1.20;99.90
4964;DHT22;2497;47.410;9.740;2024-01-30T08:01:42;-1.10;99.90
4964;DHT22;2497;47.410;9.740;2024-01-30T08:04:09;-1.10;99.90
4964;DHT22;2497;47.410;9.740;2024-01-30T08:06:36;-1.10;99.90
4964;DHT22;2497;47.410;9.740;2024-01-30T08:09:03;-1.00;99.90
4964;DHT22;2497;47.410;9.740;2024-01-30T08:11:30;-1.00;99.90
4964;DHT22;2497;47.410;9.740;2024-01-30T08:13:57;-0.90;99.90
4964;DHT22;2497;47.410;9.740;2024-01-30T08:16:28;-0.90;99.90
4964;DHT22;2497;47.410;9.740;2024-01-30T08:18:55;-0.90;99.90
4964;DHT22;2497;47.410;9.740;2024-01-30T08:21:23;-0.80;99.90
4964;DHT22;2497;47.410;9.740;2024-01-30T08:23:50;-0.70;99.90
4964;DHT22;2497;47.410;9.740;2024-01-30T08:26:18;-0.60;99.90
4964;DHT22;2497;47.410;9.740;2024-01-30T08:28:48;-0.50;99.90
4964;DHT22;2497;47.410;9.740;2024-01-30T08:31:15;-0.40;99.90
4964;DHT22;2497;47.410;9.740;2024-01-30T08:33:44;-0.30;99.90
4964;DHT22;2497;47.410;9.740;2024-01-30T08:36:11;-0.30;99.90
4964;DHT22;2497;47.410;9.740;2024-01-30T08:38:38;-0.20;99.90
4964;DHT22;2497;47.410;9.740;2024-01-30T08:41:05;-0.20;99.90
4964;DHT22;2497;47.410;9.740;2024-01-30T08:43:33;-0.20;99.90
4964;DHT22;2497;47.410;9.740;2024-01-30T08:46:02;-0.10;99.90
4964;DHT22;2497;47.410;9.740;2024-01-30T08:48:32;0.00;99.90
4964;DHT22;2497;47.410;9.740;2024-01-30T08:51:00;0.00;99.90
4964;DHT22;2497;47.410;9.740;2024-01-30T08:53:27;-0.10;99.90
4964;DHT22;2497;47.410;9.740;2024-01-30T08:55:57;0.00;99.90
4964;DHT22;2497;47.410;9.740;2024-01-30T08:58:24;0.30;99.90
4964;DHT22;2497;47.410;9.740;2024-01-30T09:00:51;0.40;99.90
4964;DHT22;2497;47.410;9.740;2024-01-30T09:03:18;0.50;99.90
4964;DHT22;2497;47.410;9.740;2024-01-30T09:05:45;0.60;99.90
4964;DHT22;2497;47.410;9.740;2024-01-30T09:08:14;0.70;99.90
4964;DHT22;2497;47.410;9.740;2024-01-30T09:10:41;0.80;99.90
4964;DHT22;2497;47.410;9.740;2024-01-30T09:13:08;0.90;99.90
4964;DHT22;2497;47.410;9.740;2024-01-30T09:15:38;1.10;99.90
4964;DHT22;2497;47.410;9.740;2024-01-30T09:18:06;1.10;99.90
4964;DHT22;2497;47.410;9.740;2024-01-30T09:20:33;1.20;99.90
4964;DHT22;2497;47.410;9.740;2024-01-30T09:23:00;1.10;99.90
4964;DHT22;2497;47.410;9.740;2024-01-30T09:25:29;1.30;99.90
4964;DHT22;2497;47.410;9.740;2024-01-30T09:27:56;1.30;99.90
4964;DHT22;2497;47.410;9.740;2024-01-30T09:30:24;1.40;99.90
4964;DHT22;2497;47.410;9.740;2024-01-30T09:32:51;1.30;99.90
4964;DHT22;2497;47.410;9.740;2024-01-30T09:35:18;1.40;99.90
4964;DHT22;2497;47.410;9.740;2024-01-30T09:37:45;1.40;99.90
4964;DHT22;2497;47.410;9.740;2024-01-30T09:40:17;1.40;99.90
4964;DHT22;2497;47.410;9.740;2024-01-30T09:42:51;1.40;99.90
4964;DHT22;2497;47.410;9.740;2024-01-30T09:45:24;1.20;99.90
4964;DHT22;2497;47.410;9.740;2024-01-30T09:47:53;1.20;99.90
4964;DHT22;2497;47.410;9.740;2024-01-30T09:50:20;1.20;99.90
4964;DHT22;2497;47.410;9.740;2024-01-30T09:52:47;1.30;99.90
4964;DHT22;2497;47.410;9.740;2024-01-30T09:55:18;1.10;99.90
4964;DHT22;2497;47.410;9.740;2024-01-30T09:57:45;1.10;99.90
4964;DHT22;2497;47.410;9.740;2024-01-30T10:00:14;1.10;99.90
4964;DHT22;2497;47.410;9.740;2024-01-30T10:02:42;1.20;99.90
4964;DHT22;2497;47.410;9.740;2024-01-30T10:05:09;1.30;99.90
4964;DHT22;2497;47.410;9.740;2024-01-30T10:07:36;1.30;99.90
4964;DHT22;2497;47.410;9.740;2024-01-30T10:10:04;1.50;99.90
4964;DHT22;2497;47.410;9.740;2024-01-30T10:12:32;1.60;99.90
4964;DHT22;2497;47.410;9.740;2024-01-30T10:15:08;1.70;99.90
4964;DHT22;2497;47.410;9.740;2024-01-30T10:17:37;1.80;99.90
4964;DHT22;2497;47.410;9.740;2024-01-30T10:20:08;1.80;99.90
4964;DHT22;2497;47.410;9.740;2024-01-30T10:22:35;1.80;99.90
4964;DHT22;2497;47.410;9.740;2024-01-30T10:25:05;2.00;99.90
4964;DHT22;2497;47.410;9.740;2024-01-30T10:27:33;2.10;99.90
4964;DHT22;2497;47.410;9.740;2024-01-30T10:30:00;2.10;99.90
4964;DHT22;2497;47.410;9.740;2024-01-30T10:32:29;2.20;99.90
4964;DHT22;2497;47.410;9.740;2024-01-30T10:34:58;2.20;99.90
4964;DHT22;2497;47.410;9.740;2024-01-30T10:37:26;2.40;99.90
4964;DHT22;2497;47.410;9.740;2024-01-30T10:40:02;2.40;99.90
4964;DHT22;2497;47.410;9.740;2024-01-30T10:42:32;2.70;99.90
4964;DHT22;2497;47.410;9.740;2024-01-30T10:45:04;2.70;99.90
4964;DHT22;2497;47.410;9.740;2024-01-30T10:47:34;2.90;99.90
4964;DHT22;2497;47.410;9.740;2024-01-30T10:50:03;2.90;99.90
4964;DHT22;2497;47.410;9.740;2024-01-30T10:52:32;3.00;99.90
4964;DHT22;2497;47.410;9.740;2024-01-30T10:54:59;3.20;99.90
4964;DHT22;2497;47.410;9.740;2024-01-30T10:57:28;3.30;99.90
4964;DHT22;2497;47.410;9.740;2024-01-30T10:59:57;3.40;99.90
4964;DHT22;2497;47.410;9.740;2024-01-30T11:02:25;3.30;99.90
4964;DHT22;2497;47.410;9.740;2024-01-30T11:04:57;3.40;99.90
4964;DHT22;2497;47.410;9.740;2024-01-30T11:07:27;3.40;99.90
4964;DHT22;2497;47.410;9.740;2024-01-30T11:10:01;3.50;99.90
4964;DHT22;2497;47.410;9.740;2024-01-30T11:12:32;3.40;99.90
4964;DHT22;2497;47.410;9.740;2024-01-30T11:15:07;3.60;99.90
4964;DHT22;2497;47.410;9.740;2024-01-30T11:17:42;3.80;99.90
4964;DHT22;2497;47.410;9.740;2024-01-30T11:20:14;3.70;99.90
4964;DHT22;2497;47.410;9.740;2024-01-30T11:22:47;3.70;99.90
4964;DHT22;2497;47.410;9.740;2024-01-30T11:25:16;3.80;99.90
4964;DHT22;2497;47.410;9.740;2024-01-30T11:27:44;4.00;99.90
4964;DHT22;2497;47.410;9.740;2024-01-30T11:30:22;4.20;99.90
4964;DHT22;2497;47.410;9.740;2024-01-30T11:33:01;4.40;99.90
4964;DHT22;2497;47.410;9.740;2024-01-30T11:35:31;4.70;99.90
4964;DHT22;2497;47.410;9.740;2024-01-30T11:38:00;4.90;99.90
4964;DHT22;2497;47.410;9.740;2024-01-30T11:40:29;5.20;99.90
4964;DHT22;2497;47.410;9.740;2024-01-30T11:42:58;5.40;99.90
4964;DHT22;2497;47.410;9.740;2024-01-30T11:45:26;5.60;99.90
4964;DHT22;2497;47.410;9.740;2024-01-30T11:47:54;6.00;99.90
4964;DHT22;2497;47.410;9.740;2024-01-30T11:50:21;6.00;99.90
4964;DHT22;2497;47.410;9.740;2024-01-30T11:52:48;6.30;99.90
4964;DHT22;2497;47.410;9.740;2024-01-30T11:55:17;6.20;99.90
4964;DHT22;2497;47.410;9.740;2024-01-30T11:57:46;6.30;99.90
4964;DHT22;2497;47.410;9.740;2024-01-30T12:00:16;6.30;99.90
4964;DHT22;2497;47.410;9.740;2024-01-30T12:02:53;6.40;99.90
4964;DHT22;2497;47.410;9.740;2024-01-30T12:05:22;6.70;99.90
4964;DHT22;2497;47.410;9.740;2024-01-30T12:07:50;7.20;99.90
4964;DHT22;2497;47.410;9.740;2024-01-30T12:10:20;7.70;99.90
4964;DHT22;2497;47.410;9.740;2024-01-30T12:12:48;8.50;99.90
4964;DHT22;2497;47.410;9.740;2024-01-30T12:15:16;8.70;99.90
4964;DHT22;2497;47.410;9.740;2024-01-30T12:17:47;9.10;99.90
4964;DHT22;2497;47.410;9.740;2024-01-30T12:20:17;9.20;99.90
4964;DHT22;2497;47.410;9.740;2024-01-30T12:22:45;9.10;99.90
4964;DHT22;2497;47.410;9.740;2024-01-30T12:25:13;8.90;99.90
4964;DHT22;2497;47.410;9.740;2024-01-30T12:27:43;8.70;99.90
4964;DHT22;2497;47.410;9.740;2024-01-30T12:30:12;8.70;99.90
4964;DHT22;2497;47.410;9.740;2024-01-30T12:32:40;9.40;99.90
4964;DHT22;2497;47.410;9.740;2024-01-30T12:35:09;9.80;99.90
4964;DHT22;2497;47.410;9.740;2024-01-30T12:37:36;9.40;99.90
4964;DHT22;2497;47.410;9.740;2024-01-30T12:40:04;8.70;99.90
4964;DHT22;2497;47.410;9.740;2024-01-30T12:42:33;9.00;99.90
4964;DHT22;2497;47.410;9.740;2024-01-30T12:45:02;9.70;99.90
4964;DHT22;2497;47.410;9.740;2024-01-30T12:47:30;10.00;99.90
4964;DHT22;2497;47.410;9.740;2024-01-30T12:50:07;9.50;99.90
4964;DHT22;2497;47.410;9.740;2024-01-30T12:52:35;9.80;99.90
4964;DHT22;2497;47.410;9.740;2024-01-30T12:55:03;9.30;99.90
4964;DHT22;2497;47.410;9.740;2024-01-30T12:57:30;8.70;99.90
4964;DHT22;2497;47.410;9.740;2024-01-30T12:59:57;8.90;99.90
4964;DHT22;2497;47.410;9.740;2024-01-30T13:02:26;9.30;99.90
4964;DHT22;2497;47.410;9.740;2024-01-30T13:05:00;9.20;99.90
4964;DHT22;2497;47.410;9.740;2024-01-30T13:07:30;8.60;99.90
4964;DHT22;2497;47.410;9.740;2024-01-30T13:10:00;8.60;99.90
4964;DHT22;2497;47.410;9.740;2024-01-30T13:12:29;8.30;99.90
4964;DHT22;2497;47.410;9.740;2024-01-30T13:14:58;8.20;99.90
4964;DHT22;2497;47.410;9.740;2024-01-30T13:17:28;8.40;99.90
4964;DHT22;2497;47.410;9.740;2024-01-30T13:19:55;8.50;99.90
4964;DHT22;2497;47.410;9.740;2024-01-30T13:22:23;8.40;99.90
4964;DHT22;2497;47.410;9.740;2024-01-30T13:24:50;8.20;99.90
4964;DHT22;2497;47.410;9.740;2024-01-30T13:27:17;7.90;99.90
4964;DHT22;2497;47.410;9.740;2024-01-30T13:29:45;8.00;99.90
4964;DHT22;2497;47.410;9.740;2024-01-30T13:32:12;8.40;99.90
4964;DHT22;2497;47.410;9.740;2024-01-30T13:34:41;8.40;99.90
4964;DHT22;2497;47.410;9.740;2024-01-30T13:37:08;8.00;99.90
4964;DHT22;2497;47.410;9.740;2024-01-30T13:39:36;7.90;99.90
4964;DHT22;2497;47.410;9.740;2024-01-30T13:42:04;7.70;99.90
4964;DHT22;2497;47.410;9.740;2024-01-30T13:44:31;7.50;99.90
4964;DHT22;2497;47.410;9.740;2024-01-30T13:46:58;7.60;99.90
4964;DHT22;2497;47.410;9.740;2024-01-30T13:49:25;7.70;99.90
4964;DHT22;2497;47.410;9.740;2024-01-30T13:51:54;7.70;99.90
4964;DHT22;2497;47.410;9.740;2024-01-30T13:54:21;7.70;99.90
4964;DHT22;2497;47.410;9.740;2024-01-30T13:56:48;7.60;99.90
4964;DHT22;2497;47.410;9.740;2024-01-30T13:59:15;7.60;99.90
4964;DHT22;2497;47.410;9.740;2024-01-30T14:01:52;7.70;99.90
4964;DHT22;2497;47.410;9.740;2024-01-30T14:04:19;7.40;99.90
4964;DHT22;2497;47.410;9.740;2024-01-30T14:06:46;7.60;99.90
4964;DHT22;2497;47.410;9.740;2024-01-30T14:09:22;7.80;99.90
4964;DHT22;2497;47.410;9.740;2024-01-30T14:11:49;8.30;99.90
4964;DHT22;2497;47.410;9.740;2024-01-30T14:14:16;8.60;99.90
4964;DHT22;2497;47.410;9.740;2024-01-30T14:16:46;9.30;99.90
4964;DHT22;2497;47.410;9.740;2024-01-30T14:19:13;9.40;99.90
4964;DHT22;2497;47.410;9.740;2024-01-30T14:21:40;9.90;99.90
4964;DHT22;2497;47.410;9.740;2024-01-30T14:24:07;9.50;99.90
4964;DHT22;2497;47.410;9.740;2024-01-30T14:26:36;9.30;99.90
4964;DHT22;2497;47.410;9.740;2024-01-30T14:29:03;9.20;99.90
4964;DHT22;2497;47.410;9.740;2024-01-30T14:31:34;9.00;99.90
4964;DHT22;2497;47.410;9.740;2024-01-30T14:34:01;8.50;99.90
4964;DHT22;2497;47.410;9.740;2024-01-30T14:36:28;8.70;99.90
4964;DHT22;2497;47.410;9.740;2024-01-30T14:38:55;9.30;99.90
4964;DHT22;2497;47.410;9.740;2024-01-30T14:41:22;9.40;99.90
4964;DHT22;2497;47.410;9.740;2024-01-30T14:43:50;9.70;99.90
4964;DHT22;2497;47.410;9.740;2024-01-30T14:46:18;9.50;99.90
4964;DHT22;2497;47.410;9.740;2024-01-30T14:48:45;9.60;99.90
4964;DHT22;2497;47.410;9.740;2024-01-30T14:51:11;9.60;99.90
4964;DHT22;2497;47.410;9.740;2024-01-30T14:53:39;9.00;99.90
4964;DHT22;2497;47.410;9.740;2024-01-30T14:56:06;8.60;99.90
4964;DHT22;2497;47.410;9.740;2024-01-30T14:58:33;8.50;99.90
4964;DHT22;2497;47.410;9.740;2024-01-30T15:01:02;8.80;99.90
4964;DHT22;2497;47.410;9.740;2024-01-30T15:03:30;9.00;99.90
4964;DHT22;2497;47.410;9.740;2024-01-30T15:05:57;9.10;99.90
4964;DHT22;2497;47.410;9.740;2024-01-30T15:08:24;9.40;99.90
4964;DHT22;2497;47.410;9.740;2024-01-30T15:10:51;9.60;99.90
4964;DHT22;2497;47.410;9.740;2024-01-30T15:13:19;9.70;99.90
4964;DHT22;2497;47.410;9.740;2024-01-30T15:15:46;9.90;99.90
4964;DHT22;2497;47.410;9.740;2024-01-30T15:18:14;9.80;99.90
4964;DHT22;2497;47.410;9.740;2024-01-30T15:20:44;9.90;99.90
4964;DHT22;2497;47.410;9.740;2024-01-30T15:23:11;9.80;99.90
4964;DHT22;2497;47.410;9.740;2024-01-30T15:25:39;9.80;99.90
4964;DHT22;2497;47.410;9.740;2024-01-30T15:28:06;9.30;99.90
4964;DHT22;2497;47.410;9.740;2024-01-30T15:30:35;9.00;99.90
4964;DHT22;2497;47.410;9.740;2024-01-30T15:33:02;8.50;99.90
4964;DHT22;2497;47.410;9.740;2024-01-30T15:35:31;8.10;99.90
4964;DHT22;2497;47.410;9.740;2024-01-30T15:37:58;7.80;99.90
4964;DHT22;2497;47.410;9.740;2024-01-30T15:40:25;7.40;99.90
4964;DHT22;2497;47.410;9.740;2024-01-30T15:42:52;6.90;99.90
4964;DHT22;2497;47.410;9.740;2024-01-30T15:45:19;6.80;99.90
4964;DHT22;2497;47.410;9.740;2024-01-30T15:47:46;6.70;99.90
4964;DHT22;2497;47.410;9.740;2024-01-30T15:50:13;6.50;99.90
4964;DHT22;2497;47.410;9.740;2024-01-30T15:52:42;6.20;99.90
4964;DHT22;2497;47.410;9.740;2024-01-30T15:55:09;6.00;99.90
4964;DHT22;2497;47.410;9.740;2024-01-30T15:57:39;6.00;99.90
4964;DHT22;2497;47.410;9.740;2024-01-30T16:00:07;5.90;99.90
4964;DHT22;2497;47.410;9.740;2024-01-30T16:02:34;5.80;99.90
4964;DHT22;2497;47.410;9.740;2024-01-30T16:05:01;5.80;99.90
4964;DHT22;2497;47.410;9.740;2024-01-30T16:07:29;5.70;99.90
4964;DHT22;2497;47.410;9.740;2024-01-30T16:09:59;5.60;99.90
4964;DHT22;2497;47.410;9.740;2024-01-30T16:12:27;5.50;99.90
4964;DHT22;2497;47.410;9.740;2024-01-30T16:14:54;5.40;99.90
4964;DHT22;2497;47.410;9.740;2024-01-30T16:17:21;5.40;99.90